»·PEaware :: CGVZB KGPI-KBFI

CGVZB :: KGPI-KBFI

FLIGHT INFORMATION

Flight Status: Arrived
Operator: Unknown
More flights by this operator :: More flights under this callsign
Pilot: Alan S. (10569)
Aircraft: CESSNA 340
(C340)
More flights by this aircraft type
Origin: KGPI Glacier Park Intl
United States
Destination: KBFI Boeing Field/King Co Intl
United States
More flights between these airports :: More routes between these airports
Route: KILLY1 RIDDG MLP GLASR1
File this flight plan on PilotEdge
Remarks:
Altitude:
(Current/Filed)
24,000ft
Speed:
(Current/Filed)
220kts
Departed: 05-Nov-17 02:22 PM
Arrived: 05-Nov-17 04:37 PM
Distance/Time
Traveled:
327nm/2:15
Distance/Time
To Go:
Arrived

Flight Plot

Page will automatically refresh every two minutes.

Flight plan parsing failed; only flown route is shown


Map Options




Map Legend


Flown Route
Filed Route
Departure Airport
Arrival Airport
Navaid (VOR, NDB)
Fix

Horizontal Profiles

Position Reports

Time Latitude Longitude Heading Altitude Ground
Speed
05-Nov-17 13:59 48.312900 -114.246706 38 2970ft 0kts
05-Nov-17 14:00 48.312900 -114.246706 38 2970ft 0kts
05-Nov-17 14:01 48.312900 -114.246706 38 2970ft 0kts
05-Nov-17 14:02 48.312900 -114.246706 38 2970ft 0kts
05-Nov-17 14:03 48.312900 -114.246706 38 2970ft 0kts
05-Nov-17 14:04 48.312900 -114.246706 38 2970ft 0kts
05-Nov-17 14:05 48.312900 -114.246706 38 2970ft 0kts
05-Nov-17 14:06 48.312900 -114.246706 38 2970ft 0kts
05-Nov-17 14:07 48.312900 -114.246706 38 2970ft 0kts
05-Nov-17 14:08 48.312900 -114.246706 38 2970ft 0kts
05-Nov-17 14:09 48.312900 -114.246706 38 2970ft 0kts
05-Nov-17 14:10 48.312900 -114.246706 38 2970ft 0kts
05-Nov-17 14:11 48.312900 -114.246706 38 2970ft 0kts
05-Nov-17 14:12 48.312900 -114.246706 38 2970ft 0kts
05-Nov-17 14:13 48.312900 -114.246706 38 2970ft 0kts
05-Nov-17 14:14 48.312900 -114.246706 37 2970ft 0kts
05-Nov-17 14:15 48.312900 -114.246706 37 2970ft 0kts
05-Nov-17 14:16 48.312900 -114.246706 37 2970ft 0kts
05-Nov-17 14:17 48.313405 -114.246815 309 2970ft 7kts
05-Nov-17 14:18 48.314272 -114.249465 210 2970ft 14kts
05-Nov-17 14:19 48.313046 -114.250778 211 2970ft 9kts
05-Nov-17 14:20 48.308511 -114.255435 213 2970ft 25kts
05-Nov-17 14:21 48.302632 -114.261501 210 2970ft 22kts
05-Nov-17 14:22 48.298646 -114.265742 215 2970ft 12kts
05-Nov-17 14:23 48.298410 -114.266390 284 2970ft 0kts
05-Nov-17 14:24 48.298410 -114.266390 285 2970ft 0kts
05-Nov-17 14:25 48.298410 -114.266390 284 2970ft 0kts
05-Nov-17 14:26 48.298504 -114.266722 298 2970ft 7kts
05-Nov-17 14:27 48.304147 -114.261894 34 2986ft 81kts
05-Nov-17 14:28 48.325313 -114.238443 26 3734ft 115kts
05-Nov-17 14:29 48.354937 -114.213242 13 4521ft 129kts
05-Nov-17 14:30 48.378989 -114.244499 305 5364ft 131kts
05-Nov-17 14:31 48.398740 -114.289086 305 6247ft 129kts
05-Nov-17 14:32 48.419314 -114.333958 303 7060ft 132kts
05-Nov-17 14:33 48.440131 -114.380127 285 7766ft 135kts
05-Nov-17 14:34 48.421093 -114.428989 238 8529ft 137kts
05-Nov-17 14:35 48.396896 -114.473763 232 9299ft 140kts
05-Nov-17 14:36 48.372374 -114.518423 232 10007ft 140kts
05-Nov-17 14:37 48.334252 -114.531477 185 10787ft 149kts
05-Nov-17 14:38 48.292693 -114.533400 184 11601ft 150kts
05-Nov-17 14:39 48.254681 -114.535019 183 12338ft 150kts
05-Nov-17 14:40 48.213195 -114.539984 190 13141ft 150kts
05-Nov-17 14:41 48.172010 -114.549057 191 13940ft 150kts
05-Nov-17 14:42 48.147029 -114.587793 255 14704ft 152kts
05-Nov-17 14:43 48.140255 -114.649850 257 15480ft 153kts
05-Nov-17 14:44 48.131031 -114.709337 223 16078ft 154kts
05-Nov-17 14:45 48.099910 -114.754013 222 16726ft 156kts
05-Nov-17 14:46 48.068459 -114.798453 223 17377ft 156kts
05-Nov-17 14:47 48.036943 -114.842833 223 18022ft 156kts
05-Nov-17 14:48 48.005454 -114.887078 223 18655ft 155kts
05-Nov-17 14:49 47.974124 -114.931022 223 19257ft 154kts
05-Nov-17 14:50 47.943093 -114.974485 223 19832ft 152kts
05-Nov-17 14:51 47.912290 -115.017434 224 20353ft 152kts
05-Nov-17 14:52 47.881813 -115.059969 224 20899ft 153kts
05-Nov-17 14:53 47.850857 -115.103111 224 21456ft 153kts
05-Nov-17 14:54 47.819845 -115.146298 224 21985ft 153kts
05-Nov-17 14:55 47.788790 -115.189389 225 22499ft 153kts
05-Nov-17 14:56 47.757570 -115.232655 225 22997ft 153kts
05-Nov-17 14:57 47.726654 -115.275434 225 23447ft 152kts
05-Nov-17 14:58 47.695848 -115.317995 225 23867ft 151kts
05-Nov-17 14:59 47.663761 -115.362402 225 23927ft 164kts
05-Nov-17 15:00 47.629317 -115.409910 225 23924ft 173kts
05-Nov-17 15:01 47.597165 -115.454034 225 23921ft 178kts
05-Nov-17 15:02 47.560593 -115.504165 225 23915ft 180kts
05-Nov-17 15:03 47.523760 -115.554574 225 23908ft 182kts
05-Nov-17 15:04 47.486627 -115.605295 225 23900ft 182kts
05-Nov-17 15:05 47.459174 -115.661393 270 23920ft 185kts
05-Nov-17 15:06 47.462753 -115.736435 269 23896ft 187kts
05-Nov-17 15:07 47.467301 -115.813440 269 23895ft 188kts
05-Nov-17 15:08 47.472002 -115.890390 269 23895ft 188kts
05-Nov-17 15:09 47.476226 -115.959895 269 23895ft 189kts
05-Nov-17 15:10 47.480880 -116.037230 269 23894ft 189kts
05-Nov-17 15:11 47.485476 -116.114518 269 23894ft 189kts
05-Nov-17 15:12 47.490028 -116.191925 269 23893ft 189kts
05-Nov-17 15:13 47.494519 -116.269210 269 23893ft 189kts
05-Nov-17 15:14 47.498941 -116.346181 269 23911ft 188kts
05-Nov-17 15:15 47.503318 -116.423316 269 23910ft 188kts
05-Nov-17 15:16 47.507648 -116.500536 269 23910ft 188kts
05-Nov-17 15:17 47.511925 -116.577746 269 23910ft 188kts
05-Nov-17 15:18 47.516072 -116.653535 269 23910ft 188kts
05-Nov-17 15:19 47.520206 -116.730046 269 23914ft 189kts
05-Nov-17 15:20 47.525048 -116.820813 269 23914ft 189kts
05-Nov-17 15:21 47.528454 -116.885550 269 23913ft 189kts
05-Nov-17 15:22 47.532488 -116.963304 269 23913ft 190kts
05-Nov-17 15:23 47.536478 -117.041078 269 23913ft 191kts
05-Nov-17 15:24 47.540461 -117.119735 269 23912ft 192kts
05-Nov-17 15:25 47.544415 -117.198685 269 23912ft 193kts
05-Nov-17 15:26 47.548321 -117.277980 269 23912ft 193kts
05-Nov-17 15:27 47.552163 -117.357101 269 23911ft 193kts
05-Nov-17 15:28 47.555954 -117.436318 269 23904ft 193kts
05-Nov-17 15:29 47.559699 -117.515729 269 23894ft 193kts
05-Nov-17 15:30 47.563390 -117.595180 269 23885ft 193kts
05-Nov-17 15:31 47.569301 -117.672410 272 23886ft 194kts
05-Nov-17 15:32 47.576840 -117.750961 272 23887ft 195kts
05-Nov-17 15:33 47.584452 -117.830559 272 23886ft 195kts
05-Nov-17 15:34 47.592009 -117.910138 272 23886ft 195kts
05-Nov-17 15:35 47.599504 -117.989662 272 23886ft 195kts
05-Nov-17 15:36 47.606929 -118.069054 272 23885ft 195kts
05-Nov-17 15:37 47.614278 -118.148241 272 23885ft 195kts
05-Nov-17 15:38 47.620125 -118.211672 272 23885ft 195kts
05-Nov-17 15:39 47.627403 -118.291186 272 23884ft 194kts
05-Nov-17 15:40 47.634622 -118.370686 272 23894ft 194kts
05-Nov-17 15:41 47.641731 -118.449595 272 23915ft 193kts
05-Nov-17 15:42 47.648803 -118.528713 272 23936ft 193kts
05-Nov-17 15:43 47.655791 -118.607517 272 23947ft 193kts
05-Nov-17 15:44 47.662341 -118.681974 272 23952ft 194kts
05-Nov-17 15:45 47.669227 -118.760791 272 23951ft 195kts
05-Nov-17 15:46 47.676119 -118.840559 272 23951ft 195kts
05-Nov-17 15:47 47.682945 -118.920197 273 23950ft 194kts
05-Nov-17 15:48 47.689708 -118.999711 274 23950ft 194kts
05-Nov-17 15:49 47.696417 -119.078954 275 23950ft 194kts
05-Nov-17 15:50 47.703080 -119.158278 275 23953ft 194kts
05-Nov-17 15:51 47.709680 -119.237752 275 23955ft 194kts
05-Nov-17 15:52 47.716198 -119.316937 275 23957ft 194kts
05-Nov-17 15:53 47.722676 -119.396328 275 23957ft 194kts
05-Nov-17 15:54 47.729104 -119.475805 275 23957ft 193kts
05-Nov-17 15:55 47.735464 -119.555160 275 23956ft 193kts
05-Nov-17 15:56 47.741752 -119.634324 275 23956ft 193kts
05-Nov-17 15:57 47.747879 -119.712077 274 23960ft 194kts
05-Nov-17 15:58 47.754095 -119.791527 274 23960ft 194kts
05-Nov-17 15:59 47.760266 -119.871255 274 23963ft 194kts
05-Nov-17 16:00 47.766382 -119.951080 274 23966ft 194kts
05-Nov-17 16:01 47.772427 -120.030726 274 23968ft 194kts
05-Nov-17 16:02 47.778420 -120.110411 274 23967ft 194kts
05-Nov-17 16:03 47.784364 -120.190240 274 23967ft 194kts
05-Nov-17 16:04 47.790247 -120.270026 274 23967ft 194kts
05-Nov-17 16:05 47.795876 -120.347099 274 23966ft 194kts
05-Nov-17 16:06 47.801648 -120.426896 274 23966ft 194kts
05-Nov-17 16:07 47.807336 -120.506310 274 23966ft 194kts
05-Nov-17 16:08 47.812982 -120.585918 274 23965ft 193kts
05-Nov-17 16:09 47.818414 -120.663318 273 23969ft 193kts
05-Nov-17 16:10 47.823666 -120.738594 274 23969ft 194kts
05-Nov-17 16:11 47.828537 -120.809089 273 23968ft 194kts
05-Nov-17 16:12 47.833910 -120.887778 273 23967ft 194kts
05-Nov-17 16:13 47.839287 -120.967383 274 23968ft 194kts
05-Nov-17 16:14 47.844165 -121.042192 276 23984ft 194kts
05-Nov-17 16:15 47.849509 -121.121985 276 23993ft 194kts
05-Nov-17 16:16 47.854752 -121.201977 277 24002ft 194kts
05-Nov-17 16:17 47.859967 -121.282112 277 24001ft 193kts
05-Nov-17 16:18 47.865366 -121.363558 277 23524ft 206kts
05-Nov-17 16:19 47.871132 -121.449456 277 22965ft 212kts
05-Nov-17 16:20 47.876840 -121.537470 277 22451ft 214kts
05-Nov-17 16:21 47.882329 -121.626156 276 21626ft 218kts
05-Nov-17 16:22 47.885470 -121.702111 258 20915ft 221kts
05-Nov-17 16:23 47.843605 -121.763866 223 19818ft 230kts
05-Nov-17 16:24 47.796175 -121.827118 225 18263ft 230kts
05-Nov-17 16:25 47.749974 -121.889630 224 16776ft 227kts
05-Nov-17 16:26 47.704312 -121.951235 224 15325ft 223kts
05-Nov-17 16:27 47.659650 -122.011344 223 13920ft 220kts
05-Nov-17 16:28 47.614924 -122.071389 223 12527ft 217kts
05-Nov-17 16:29 47.568635 -122.124768 191 11149ft 217kts
05-Nov-17 16:30 47.509716 -122.108451 165 9817ft 216kts
05-Nov-17 16:31 47.464967 -122.080656 157 9013ft 206kts
05-Nov-17 16:32 47.412886 -122.047150 156 8041ft 202kts
05-Nov-17 16:33 47.355564 -122.035122 238 6645ft 192kts
05-Nov-17 16:34 47.331540 -122.088222 235 5572ft 187kts
05-Nov-17 16:35 47.324469 -122.150110 339 4222ft 181kts
05-Nov-17 16:36 47.369098 -122.166722 331 3133ft 166kts
05-Nov-17 16:37 47.405920 -122.197917 330 2471ft 139kts
05-Nov-17 16:38 47.437272 -122.223964 331 1860ft 121kts
05-Nov-17 16:39 47.465805 -122.247573 333 1304ft 115kts
05-Nov-17 16:40 47.491590 -122.270107 332 682ft 102kts
05-Nov-17 16:41 47.513862 -122.288800 331 151ft 89kts
05-Nov-17 16:42 47.526936 -122.299317 31 13ft 7kts
05-Nov-17 16:43 47.527003 -122.297619 40 14ft 9kts

Navigation Log

Ident Type
Flight plan parsing failed, navigation log unavailable